Saint-Zotique, Canada
Current Conditions -  °F | °C
As of 2:00 AM on Saturday 25 Oct 2014 (Local Time) from CYUL Reporting Station
Broken Clouds Broken Clouds  
Wind Chill: 44°   Ceiling: 15000
Heat Index: 46°   Visibility: 15mi
Dew Point: 43°   Wind: 6mph
Humidity: 87%   Direction: 230°SW
Pressure: 29.76"   Gusts: NA
Location:  45.23°N, 74.25°W
Report Text: CYUL 250600Z 23005KT 15SM BKN150 08/06 A2976 RMK AC7 SLP077
Loading
Personal Weather Stations






























Interactive Weather Map
Tropical Storm Tracking
New forecast layout! Learn more

10-Day Weather Forecast

Advertisements
Track Severe Weather on mobile